Time;durP1;ratioP1;P1;durP2;ratioP2;P2;SDS_P1;SDS_P2;PMS_P1;PMS_P2;Temp;Humidity;BMP_temperature;BMP_pressure;BME280_temperature;BME280_humidity;BME280_pressure;Samples;Min_cycle;Max_cycle;Signal;HPM_P1;HPM_P2
2022/03/27 00:00:49;;;;;;;9.80;6.18;;;;;;;;;;5077845;28;20124;-83
2022/03/27 00:03:33;;;;;;;11.15;5.85;;;6.80;99.90;;;;;;5092542;28;20505;-83
2022/03/27 00:06:17;;;;;;;11.25;7.00;;;7.90;99.90;;;;;;5092075;28;20089;-82
2022/03/27 00:09:01;;;;;;;;;;;6.80;99.90;;;;;;5092421;28;20075;-82
2022/03/27 00:11:46;;;;;;;9.07;5.63;;;8.20;99.90;;;;;;5092704;28;19923;-82
2022/03/27 00:14:31;;;;;;;11.32;5.75;;;;;;;;;;5091253;28;20449;-83
2022/03/27 00:17:15;;;;;;;8.82;6.05;;;6.80;99.90;;;;;;5092808;28;20039;-82
2022/03/27 00:20:00;;;;;;;;;;;8.50;99.90;;;;;;5092288;28;20059;-82
2022/03/27 00:22:44;;;;;;;;;;;6.80;99.90;;;;;;5092414;28;19958;-83
2022/03/27 00:25:28;;;;;;;10.55;5.70;;;6.80;99.90;;;;;;5120186;27;20347;-83
2022/03/27 00:28:13;;;;;;;10.38;6.70;;;;;;;;;;5091876;28;20496;-82
2022/03/27 00:30:58;;;;;;;11.07;5.82;;;6.70;99.90;;;;;;5092569;28;20080;-82
2022/03/27 00:33:45;;;;;;;12.55;7.07;;;6.70;99.90;;;;;;5091998;28;20117;-82
2022/03/27 00:36:29;;;;;;;12.43;6.20;;;;;;;;;;5092026;28;20030;-83
2022/03/27 00:39:14;;;;;;;12.18;6.35;;;;;;;;;;5091568;28;20533;-82
2022/03/27 00:41:59;;;;;;;7.80;5.55;;;;;;;;;;5092520;28;20491;-82
2022/03/27 00:44:43;;;;;;;9.02;5.90;;;6.70;99.90;;;;;;5091936;28;20078;-83
2022/03/27 00:47:28;;;;;;;10.63;5.97;;;;;;;;;;5091828;28;20063;-83
2022/03/27 00:50:12;;;;;;;9.25;5.90;;;6.80;99.90;;;;;;5077240;28;20124;-82
2022/03/27 00:52:57;;;;;;;10.02;6.15;;;;;;;;;;5077323;28;20051;-82
2022/03/27 00:55:44;;;;;;;9.80;5.95;;;;;;;;;;5076664;28;20149;-82
2022/03/27 00:58:29;;;;;;;9.60;6.00;;;;;;;;;;5091750;28;20031;-84
2022/03/27 01:01:15;;;;;;;8.20;5.80;;;6.80;99.90;;;;;;5092350;28;20039;-82
2022/03/27 01:04:00;;;;;;;11.98;6.25;;;;;;;;;;5092312;28;20119;-82
2022/03/27 01:06:45;;;;;;;10.20;6.05;;;;;;;;;;5090771;28;20560;-82
2022/03/27 01:09:38;;;;;;;11.95;6.60;;;;;;;;;;5092060;28;20443;-83
2022/03/27 01:12:37;;;;;;;12.00;7.18;;;6.80;99.90;;;;;;5091403;28;20051;-82
2022/03/27 01:15:26;;;;;;;13.10;7.88;;;6.80;99.90;;;;;;5092374;28;20198;-83
2022/03/27 01:18:12;;;;;;;15.75;8.43;;;;;;;;;;5091378;28;20035;-82
2022/03/27 01:20:56;;;;;;;18.88;8.55;;;;;;;;;;5091163;28;20488;-83
2022/03/27 01:23:40;;;;;;;16.52;9.00;;;6.90;99.90;;;;;;5076340;28;20085;-82
2022/03/27 01:26:25;;;;;;;16.08;9.70;;;6.70;99.90;;;;;;5076933;28;20128;-82
2022/03/27 01:29:09;;;;;;;16.60;8.93;;;7.00;99.90;;;;;;5091064;28;20043;-82
2022/03/27 01:31:53;;;;;;;;;;;7.80;99.90;;;;;;5090885;28;20039;-83
2022/03/27 01:34:37;;;;;;;;;;;6.80;99.90;;;;;;5095068;28;20284;-83
2022/03/27 01:37:22;;;;;;;18.48;8.13;;;8.00;99.90;;;;;;5096030;28;19915;-82
2022/03/27 01:40:06;;;;;;;18.95;9.70;;;8.40;99.90;;;;;;5094968;28;20435;-82
2022/03/27 01:42:54;;;;;;;19.20;9.18;;;6.70;99.90;;;;;;5079949;28;20105;-83
2022/03/27 01:45:38;;;;;;;16.65;8.63;;;;;;;;;;5094231;28;20043;-83
2022/03/27 01:48:22;;;;;;;20.80;9.95;;;;;;;;;;5094851;28;20047;-83
2022/03/27 01:51:07;;;;;;;18.95;9.00;;;6.60;99.90;;;;;;5094723;28;20116;-83
2022/03/27 01:53:52;;;;;;;15.30;8.20;;;6.60;99.90;;;;;;5095024;28;20035;-83
2022/03/27 01:56:38;;;;;;;17.35;9.00;;;8.20;99.90;;;;;;5094442;28;20035;-84
2022/03/27 01:59:22;;;;;;;15.35;8.32;;;8.70;99.90;;;;;;5094534;28;20082;-82
2022/03/27 02:02:06;;;;;;;;;;;8.00;99.90;;;;;;5094805;28;20083;-83
2022/03/27 02:04:52;;;;;;;16.73;7.97;;;6.30;99.90;;;;;;5093840;28;20004;-83
2022/03/27 02:07:42;;;;;;;19.77;9.35;;;6.30;99.90;;;;;;5080130;28;20180;-82
2022/03/27 02:10:26;;;;;;;18.45;8.40;;;7.50;99.90;;;;;;5094298;28;20467;-82
2022/03/27 02:13:15;;;;;;;16.75;7.70;;;6.30;99.90;;;;;;5094225;28;20085;-82
2022/03/27 02:15:59;;;;;;;19.10;8.00;;;8.00;99.90;;;;;;5093391;28;20150;-82
2022/03/27 02:18:43;;;;;;;19.50;7.95;;;6.30;99.90;;;;;;5108033;27;20043;-83
2022/03/27 02:21:28;;;;;;;22.23;8.93;;;6.40;99.90;;;;;;5079847;28;20128;-82
2022/03/27 02:24:12;;;;;;;;;;;7.90;99.90;;;;;;5095374;28;20081;-82
2022/03/27 02:26:56;;;;;;;16.98;9.10;;;;;;;;;;5093503;28;20272;-82
2022/03/27 02:29:41;;;;;;;21.92;9.35;;;;;;;;;;5079588;28;20487;-84
2022/03/27 02:32:25;;;;;;;23.80;10.10;;;;;;;;;;5093768;28;20100;-82
2022/03/27 02:35:10;;;;;;;21.90;9.50;;;;;;;;;;5093731;28;20446;-82
2022/03/27 02:37:54;;;;;;;22.10;9.32;;;6.40;99.90;;;;;;5093134;28;20082;-82
2022/03/27 02:40:40;;;;;;;21.55;8.30;;;6.60;99.90;;;;;;5094754;28;20079;-82
2022/03/27 02:43:25;;;;;;;25.33;9.43;;;7.10;99.90;;;;;;5094666;28;20035;-82
2022/03/27 02:46:09;;;;;;;22.58;9.45;;;7.50;99.90;;;;;;5093336;28;20035;-82
2022/03/27 02:48:53;;;;;;;30.35;10.73;;;6.40;99.90;;;;;;5093955;28;20036;-83
2022/03/27 02:51:39;;;;;;;29.25;10.85;;;;;;;;;;5107797;28;20083;-82
2022/03/27 02:54:24;;;;;;;21.70;9.82;;;6.40;99.90;;;;;;5094540;28;20039;-82
2022/03/27 02:57:07;;;;;;;;;;;6.60;99.90;;;;;;5094216;28;20059;-82
2022/03/27 02:59:52;;;;;;;20.35;9.73;;;6.60;99.90;;;;;;5107048;28;20271;-83
2022/03/27 03:02:37;;;;;;;21.73;9.38;;;;;;;;;;5093414;28;20042;-82
2022/03/27 03:05:22;;;;;;;20.30;9.65;;;6.40;99.90;;;;;;5093148;28;20035;-82
2022/03/27 03:08:11;;;;;;;29.00;10.15;;;6.40;99.90;;;;;;5093566;28;20074;-82
2022/03/27 03:10:56;;;;;;;19.45;9.32;;;6.40;99.90;;;;;;5092584;28;20526;-83
2022/03/27 03:13:41;;;;;;;23.58;8.35;;;6.40;99.90;;;;;;5094156;28;20493;-82
2022/03/27 03:16:26;;;;;;;23.77;8.50;;;6.40;99.90;;;;;;5094068;28;20411;-82
2022/03/27 03:19:11;;;;;;;23.83;9.10;;;;;;;;;;5093241;28;20062;-82
2022/03/27 03:21:55;;;;;;;18.20;8.20;;;;;;;;;;5093400;28;20502;-82
2022/03/27 03:24:40;;;;;;;18.13;8.63;;;6.40;99.90;;;;;;5092868;28;20392;-82
2022/03/27 03:27:24;;;;;;;27.10;8.68;;;6.30;99.90;;;;;;5078533;28;20043;-82
2022/03/27 03:30:09;;;;;;;;;;;6.40;99.90;;;;;;5093572;28;20132;-82
2022/03/27 03:32:53;;;;;;;15.93;7.43;;;6.40;99.90;;;;;;5121068;27;20326;-83
2022/03/27 03:35:38;;;;;;;16.65;8.30;;;;;;;;;;5092778;28;20091;-82
2022/03/27 03:38:23;;;;;;;19.13;7.53;;;;;;;;;;5092653;28;20399;-82
2022/03/27 03:41:08;;;;;;;22.10;7.75;;;;;;;;;;5077743;28;20090;-83
2022/03/27 03:43:53;;;;;;;25.13;8.20;;;6.30;99.90;;;;;;5093239;28;20039;-84
2022/03/27 03:46:37;;;;;;;;;;;8.00;99.90;;;;;;5093851;28;20392;-82
2022/03/27 03:49:21;;;;;;;19.77;8.40;;;;;;;;;;5093351;28;20296;-82
2022/03/27 03:52:09;;;;;;;25.90;8.50;;;6.30;99.90;;;;;;5092702;28;20043;-83
2022/03/27 03:54:54;;;;;;;30.92;8.68;;;;;;;;;;5093007;28;20381;-84
2022/03/27 03:57:38;;;;;;;26.90;10.25;;;;;;;;;;5092636;28;20062;-82
2022/03/27 04:00:23;;;;;;;26.40;9.38;;;;;;;;;;5093178;28;20109;-82
2022/03/27 04:03:08;;;;;;;25.30;9.05;;;;;;;;;;5092550;28;20093;-82
2022/03/27 04:05:53;;;;;;;27.98;9.80;;;6.40;99.90;;;;;;5077826;28;20036;-82
2022/03/27 04:08:37;;;;;;;;;;;7.30;99.90;;;;;;5078058;28;20042;-82
2022/03/27 04:11:21;;;;;;;26.98;8.70;;;;;;;;;;5092617;28;19923;-82
2022/03/27 04:14:05;;;;;;;25.23;9.00;;;6.40;99.90;;;;;;5091215;28;20487;-82
2022/03/27 04:16:50;;;;;;;29.35;9.38;;;;;;;;;;5077526;28;20082;-83
2022/03/27 04:19:34;;;;;;;26.55;9.45;;;6.40;99.90;;;;;;5092807;28;20070;-82
2022/03/27 04:22:19;;;;;;;23.25;10.15;;;7.10;99.90;;;;;;5091211;28;20120;-83
2022/03/27 04:25:03;;;;;;;;;;;8.30;99.90;;;;;;5091489;28;20035;-83
2022/03/27 04:27:47;;;;;;;26.95;7.45;;;;;;;;;;5092783;28;20034;-83
2022/03/27 04:30:31;;;;;;;32.92;9.85;;;6.40;99.90;;;;;;5091479;28;20104;-83
2022/03/27 04:33:16;;;;;;;;;;;6.30;99.90;;;;;;5091367;28;20090;-83
2022/03/27 04:36:03;;;;;;;32.10;8.75;;;6.00;99.90;;;;;;5091125;28;19914;-84
2022/03/27 04:38:48;;;;;;;32.65;8.90;;;;;;;;;;5077382;28;20046;-82
2022/03/27 04:41:33;;;;;;;28.65;9.20;;;;;;;;;;5092468;28;20499;-82
2022/03/27 04:44:17;;;;;;;34.10;9.55;;;6.80;99.90;;;;;;5091815;28;20039;-82
2022/03/27 04:47:01;;;;;;;30.63;10.35;;;6.30;99.90;;;;;;5091242;28;20443;-83
2022/03/27 04:49:45;;;;;;;29.77;9.90;;;7.30;99.90;;;;;;5091521;28;20047;-82
2022/03/27 04:52:29;;;;;;;43.63;10.45;;;7.90;99.90;;;;;;5092336;28;20055;-82
2022/03/27 04:55:13;;;;;;;36.15;8.77;;;;;;;;;;5091829;28;20089;-82
2022/03/27 04:57:58;;;;;;;37.03;10.30;;;6.20;99.90;;;;;;5091444;28;20046;-83
2022/03/27 05:00:42;;;;;;;32.47;9.60;;;6.20;99.90;;;;;;5077322;28;20058;-83
2022/03/27 05:03:27;;;;;;;39.70;8.90;;;6.30;99.90;;;;;;5076586;28;20833;-83
2022/03/27 05:06:11;;;;;;;;;;;6.20;99.90;;;;;;5092195;28;20491;-83
2022/03/27 05:08:58;;;;;;;37.83;8.27;;;6.50;99.90;;;;;;5093560;28;19919;-83
2022/03/27 05:11:43;;;;;;;31.13;8.50;;;;;;;;;;5095547;28;20103;-82
2022/03/27 05:14:28;;;;;;;34.50;9.73;;;;;;;;;;5095531;28;20039;-83
2022/03/27 05:17:12;;;;;;;36.75;8.45;;;;;;;;;;5080447;28;20491;-83
2022/03/27 05:19:56;;;;;;;29.52;7.88;;;6.10;99.90;;;;;;5095277;28;20039;-82
2022/03/27 05:22:45;;;;;;;36.10;8.13;;;6.70;99.90;;;;;;5095260;28;20049;-82
2022/03/27 05:25:29;;;;;;;35.38;9.13;;;6.10;99.90;;;;;;5094549;28;20043;-82
2022/03/27 05:28:14;;;;;;;36.10;8.18;;;;;;;;;;5080285;28;20090;-83
2022/03/27 05:30:58;;;;;;;24.60;7.18;;;6.10;99.90;;;;;;5094878;28;20047;-82
2022/03/27 05:33:43;;;;;;;30.52;8.63;;;6.10;99.90;;;;;;5080675;28;20043;-82
2022/03/27 05:36:27;;;;;;;33.67;7.60;;;;;;;;;;5094480;28;20101;-82
2022/03/27 05:39:13;;;;;;;40.13;9.45;;;6.10;99.90;;;;;;5094241;28;20538;-83
2022/03/27 05:41:58;;;;;;;29.15;7.28;;;;;;;;;;5094756;28;20043;-82
2022/03/27 05:44:42;;;;;;;39.92;8.20;;;;;;;;;;5094905;28;20039;-83
2022/03/27 05:47:27;;;;;;;34.40;7.70;;;6.10;99.90;;;;;;5095029;28;20035;-83
2022/03/27 05:50:18;;;;;;;37.75;7.35;;;6.10;99.90;;;;;;5094195;28;20071;-84
2022/03/27 05:53:02;;;;;;;37.70;8.00;;;7.50;99.90;;;;;;5094506;28;20567;-83
2022/03/27 05:55:47;;;;;;;32.15;7.82;;;7.40;99.90;;;;;;5080380;28;20123;-82
2022/03/27 05:58:31;;;;;;;27.65;7.03;;;7.80;99.90;;;;;;5079628;28;20758;-82
2022/03/27 06:01:15;;;;;;;39.08;7.95;;;6.10;99.90;;;;;;5079449;28;20495;-83
2022/03/27 06:03:59;;;;;;;;;;;6.10;99.90;;;;;;5095897;28;20035;-83
2022/03/27 06:06:44;;;;;;;36.58;6.88;;;6.20;99.90;;;;;;5094558;28;19952;-82
2022/03/27 06:09:28;;;;;;;42.75;6.93;;;7.20;99.90;;;;;;5093694;28;20507;-83
2022/03/27 06:12:14;;;;;;;33.35;7.47;;;;;;;;;;5079821;28;20411;-82
2022/03/27 06:14:58;;;;;;;50.53;8.13;;;6.00;99.90;;;;;;5094718;28;20055;-82
2022/03/27 06:17:44;;;;;;;34.50;8.43;;;6.30;99.90;;;;;;5092800;28;20043;-82
2022/03/27 06:20:31;;;;;;;41.35;7.97;;;6.80;99.90;;;;;;5091849;28;20035;-82
2022/03/27 06:23:16;;;;;;;33.20;7.47;;;6.00;99.90;;;;;;5093468;28;20039;-84
2022/03/27 06:26:00;;;;;;;28.85;6.68;;;6.00;99.90;;;;;;5093855;28;20040;-82
2022/03/27 06:28:44;;;;;;;;;;;6.10;99.90;;;;;;5090052;28;20035;-84
2022/03/27 06:31:29;;;;;;;31.73;6.65;;;;;;;;;;5111931;28;19972;-83
2022/03/27 06:34:13;;;;;;;35.22;7.10;;;6.10;99.90;;;;;;5112730;28;20450;-83
2022/03/27 06:36:58;;;;;;;27.27;6.82;;;;;;;;;;5112980;28;20050;-82
2022/03/27 06:39:42;;;;;;;34.35;6.28;;;;;;;;;;5098200;28;20127;-82
2022/03/27 06:42:27;;;;;;;27.38;6.35;;;6.10;99.90;;;;;;5112240;28;20406;-83
2022/03/27 06:45:13;;;;;;;20.80;5.38;;;6.10;99.90;;;;;;5098498;28;20047;-82
2022/03/27 06:47:58;;;;;;;35.30;7.03;;;;;;;;;;5113774;28;20041;-82
2022/03/27 06:50:44;;;;;;;36.05;9.60;;;;;;;;;;5113113;28;20122;-82
2022/03/27 06:53:28;;;;;;;37.22;7.03;;;6.10;99.90;;;;;;5113162;28;20030;-82
2022/03/27 06:56:13;;;;;;;35.22;6.95;;;6.90;99.90;;;;;;5098184;28;20119;-82
2022/03/27 06:58:57;;;;;;;32.45;7.18;;;6.20;99.90;;;;;;5095809;28;20548;-83
2022/03/27 07:04:45;;;;;;;33.13;6.43;;;;;;;;;;5092739;28;20012;-82
2022/03/27 07:07:30;;;;;;;41.35;7.43;;;6.40;99.90;;;;;;5092547;28;20063;-82
2022/03/27 07:10:14;;;;;;;38.30;7.45;;;6.50;99.90;;;;;;5104069;28;20039;-82
2022/03/27 07:12:58;;;;;;;;;;;7.00;99.90;;;;;;5112653;28;20138;-82
2022/03/27 07:15:44;;;;;;;41.28;7.63;;;6.50;99.90;;;;;;5074920;28;1085183;-82
2022/03/27 07:18:29;;;;;;;58.25;9.52;;;;;;;;;;5097515;28;20043;-83
2022/03/27 07:21:14;;;;;;;40.80;8.32;;;;;;;;;;5113397;28;20107;-83
2022/03/27 07:23:59;;;;;;;38.60;8.57;;;;;;;;;;5113693;28;20046;-83
2022/03/27 07:26:45;;;;;;;42.90;8.82;;;;;;;;;;5112116;28;20031;-82
2022/03/27 07:29:35;;;;;;;50.88;8.95;;;6.60;99.90;;;;;;5112407;28;20050;-83
2022/03/27 07:32:19;;;;;;;41.40;8.70;;;;;;;;;;5110467;28;20173;-83
2022/03/27 07:35:04;;;;;;;46.83;9.63;;;6.70;99.90;;;;;;5113513;28;20084;-83
2022/03/27 07:37:51;;;;;;;43.45;9.05;;;;;;;;;;5113390;28;20034;-83
2022/03/27 07:40:36;;;;;;;42.75;9.25;;;6.80;99.90;;;;;;5113273;28;20468;-84
2022/03/27 07:43:21;;;;;;;39.13;9.95;;;;;;;;;;5098196;28;20171;-84
2022/03/27 07:46:05;;;;;;;42.85;8.85;;;;;;;;;;5113809;28;20097;-83
2022/03/27 07:48:50;;;;;;;40.90;10.13;;;;;;;;;;5113015;28;20095;-83
2022/03/27 07:51:34;;;;;;;51.95;9.65;;;;;;;;;;5097639;28;20042;-83
2022/03/27 07:54:19;;;;;;;40.70;9.38;;;7.30;99.90;;;;;;5112572;28;20050;-83
2022/03/27 07:57:03;;;;;;;34.65;8.85;;;;;;;;;;5098249;28;20423;-83
2022/03/27 07:59:48;;;;;;;43.58;10.07;;;;;;;;;;5111944;28;20408;-83
2022/03/27 08:02:33;;;;;;;34.70;7.78;;;;;;;;;;5112953;28;20069;-84
2022/03/27 08:05:17;;;;;;;37.83;9.43;;;;;;;;;;5097934;28;20187;-83
2022/03/27 08:08:02;;;;;;;40.42;7.95;;;7.90;99.90;;;;;;5112278;28;20087;-83
2022/03/27 08:10:47;;;;;;;39.40;7.47;;;8.00;99.90;;;;;;5096632;28;20099;-83
2022/03/27 08:13:31;;;;;;;37.60;8.13;;;8.20;99.90;;;;;;5111361;28;20043;-83
2022/03/27 08:16:16;;;;;;;45.90;8.05;;;8.40;99.90;;;;;;5097760;28;20058;-84
2022/03/27 08:19:00;;;;;;;46.80;9.55;;;;;;;;;;5112136;28;20038;-85
2022/03/27 08:21:45;;;;;;;33.00;7.88;;;;;;;;;;5111429;28;20046;-84
2022/03/27 08:24:29;;;;;;;46.20;8.23;;;8.80;99.90;;;;;;5113089;28;20138;-83
2022/03/27 08:27:14;;;;;;;37.78;8.68;;;;;;;;;;5111873;28;20042;-85
2022/03/27 08:29:59;;;;;;;47.45;8.77;;;;;;;;;;5110605;28;20054;-83
2022/03/27 08:32:43;;;;;;;37.65;7.63;;;;;;;;;;5112289;28;20042;-83
2022/03/27 08:35:28;;;;;;;39.67;7.72;;;;;;;;;;5097540;28;20130;-83
2022/03/27 08:38:18;;;;;;;31.80;6.97;;;9.90;99.90;;;;;;5111856;28;20110;-90
2022/03/27 08:41:04;;;;;;;34.05;7.13;;;10.10;99.90;;;;;;5111894;28;20055;-83
2022/03/27 08:43:58;;;;;;;31.13;7.78;;;10.30;99.90;;;;;;5096530;28;20466;-83
2022/03/27 08:46:42;;;;;;;;;;;10.30;99.90;;;;;;5110724;28;20447;-83
2022/03/27 08:49:40;;;;;;;33.20;7.60;;;10.40;99.90;;;;;;5109286;28;20119;-83
2022/03/27 08:52:46;;;;;;;35.92;7.03;;;10.40;99.90;;;;;;5111720;28;20047;-83
2022/03/27 08:55:40;;;;;;;29.00;6.90;;;10.60;99.90;;;;;;5109325;28;20490;-83
2022/03/27 08:58:39;;;;;;;36.70;8.90;;;10.50;99.90;;;;;;5106824;28;20034;-83
2022/03/27 09:01:24;;;;;;;35.35;7.80;;;11.10;99.90;;;;;;5101317;28;20160;-83
2022/03/27 09:04:11;;;;;;;34.05;7.25;;;;;;;;;;5130993;27;20031;-82
2022/03/27 09:06:55;;;;;;;28.85;7.70;;;11.40;99.90;;;;;;5119603;28;20529;-84
2022/03/27 09:09:39;;;;;;;;;;;11.50;99.90;;;;;;5092685;28;20148;-83
2022/03/27 09:12:23;;;;;;;29.23;8.13;;;;;;;;;;5104247;28;19930;-84
2022/03/27 09:15:09;;;;;;;29.70;6.20;;;11.50;99.90;;;;;;5110285;28;20062;-82
2022/03/27 09:18:06;;;;;;;32.85;7.18;;;11.50;99.90;;;;;;5096422;28;20098;-82
2022/03/27 09:20:52;;;;;;;26.75;6.30;;;11.50;99.90;;;;;;5110806;28;20050;-82
2022/03/27 09:23:36;;;;;;;36.17;7.68;;;11.50;99.90;;;;;;5111377;28;20039;-82
2022/03/27 09:26:21;;;;;;;26.20;7.18;;;;;;;;;;5111162;28;20038;-83
2022/03/27 09:29:09;;;;;;;36.08;7.32;;;11.60;99.90;;;;;;5110737;28;20039;-82
2022/03/27 09:31:58;;;;;;;32.65;7.20;;;11.60;99.90;;;;;;5111749;28;20486;-82
2022/03/27 09:35:03;;;;;;;32.80;7.20;;;11.70;99.90;;;;;;5083010;28;20544;-82
2022/03/27 09:37:48;;;;;;;35.22;7.25;;;11.90;99.90;;;;;;5111714;28;20046;-84
2022/03/27 09:40:36;;;;;;;30.08;7.25;;;11.80;99.90;;;;;;5111253;28;20034;-82
2022/03/27 09:43:22;;;;;;;31.00;7.93;;;11.90;99.90;;;;;;5112397;28;20091;-82
2022/03/27 09:46:06;;;;;;;41.33;9.25;;;12.00;99.90;;;;;;5110647;28;20640;-82
2022/03/27 09:48:57;;;;;;;32.28;7.68;;;12.10;99.90;;;;;;5110625;28;20108;-83
2022/03/27 09:51:54;;;;;;;26.70;6.82;;;12.20;99.90;;;;;;5111239;28;20093;-82
2022/03/27 09:55:00;;;;;;;35.92;7.32;;;12.40;99.90;;;;;;5112639;28;20038;-82
2022/03/27 09:57:57;;;;;;;31.42;7.35;;;12.40;99.90;;;;;;5115822;28;20030;-82
2022/03/27 10:00:42;;;;;;;36.45;7.22;;;12.60;99.90;;;;;;5115893;28;20539;-82
2022/03/27 10:03:26;;;;;;;21.85;5.50;;;13.00;99.90;;;;;;5100428;28;20038;-82
2022/03/27 10:06:29;;;;;;;25.25;6.65;;;13.60;99.90;;;;;;5099734;28;20092;-82
2022/03/27 10:09:14;;;;;;;28.45;6.00;;;13.80;99.90;;;;;;5114193;28;20038;-82
2022/03/27 10:12:00;;;;;;;26.85;7.18;;;13.80;99.90;;;;;;5113898;28;20050;-82
2022/03/27 10:14:47;;;;;;;25.55;7.43;;;13.70;99.90;;;;;;5114470;28;20391;-82
2022/03/27 10:17:33;;;;;;;32.85;7.25;;;13.60;99.90;;;;;;5114421;28;20047;-82
2022/03/27 10:20:21;;;;;;;24.15;7.22;;;13.50;99.90;;;;;;5115273;28;20038;-82
2022/03/27 10:23:22;;;;;;;28.08;6.75;;;13.50;99.90;;;;;;5113869;28;20039;-82
2022/03/27 10:26:06;;;;;;;26.70;6.70;;;13.50;99.90;;;;;;5114845;28;20077;-82
2022/03/27 10:28:51;;;;;;;30.15;6.70;;;13.40;99.90;;;;;;5114250;28;20034;-82
2022/03/27 10:31:36;;;;;;;26.05;6.53;;;13.60;99.90;;;;;;5115362;28;20089;-82
2022/03/27 10:34:22;;;;;;;29.85;5.50;;;13.70;99.90;;;;;;5114271;28;20536;-82
2022/03/27 10:37:31;;;;;;;26.98;6.07;;;13.70;99.90;;;;;;5113646;28;20042;-82
2022/03/27 10:40:26;;;;;;;29.65;5.97;;;14.00;99.90;;;;;;5111654;28;20151;-83
2022/03/27 10:43:35;;;;;;;24.73;5.35;;;14.10;99.10;;;;;;5114507;28;20553;-83
2022/03/27 10:46:22;;;;;;;23.17;5.88;;;14.10;99.90;;;;;;5114732;28;20034;-83
2022/03/27 10:49:17;;;;;;;25.40;5.65;;;14.20;99.90;;;;;;5114443;28;20112;-82
2022/03/27 10:52:06;;;;;;;30.67;5.38;;;14.30;98.50;;;;;;5114296;28;20104;-82
2022/03/27 10:55:01;;;;;;;29.52;6.30;;;14.40;99.90;;;;;;5099522;28;20054;-82
2022/03/27 10:57:49;;;;;;;21.55;5.55;;;14.50;98.60;;;;;;5114988;28;20396;-82
2022/03/27 11:00:40;;;;;;;29.10;5.97;;;14.60;98.70;;;;;;5114744;28;20031;-82
2022/03/27 11:03:45;;;;;;;22.50;5.82;;;14.60;97.30;;;;;;5114729;28;20035;-82
2022/03/27 11:06:31;;;;;;;24.33;5.65;;;14.60;96.60;;;;;;5141498;27;20043;-82
2022/03/27 11:09:34;;;;;;;25.67;5.75;;;14.60;96.80;;;;;;5114098;28;20034;-82
2022/03/27 11:12:25;;;;;;;21.05;4.47;;;14.70;94.90;;;;;;5113826;28;20524;-82
2022/03/27 11:15:09;;;;;;;24.27;5.40;;;14.80;93.40;;;;;;5112641;28;20058;-82
2022/03/27 11:18:10;;;;;;;20.58;5.22;;;14.80;94.60;;;;;;5114495;28;20063;-82
2022/03/27 11:20:54;;;;;;;18.70;4.78;;;14.80;93.20;;;;;;5114472;28;20031;-82
2022/03/27 11:23:40;;;;;;;23.50;5.47;;;14.90;93.40;;;;;;5113237;28;20038;-82
2022/03/27 11:26:29;;;;;;;19.35;4.15;;;15.10;92.80;;;;;;5112865;28;20092;-82
2022/03/27 11:29:21;;;;;;;17.98;5.00;;;15.20;90.70;;;;;;5113631;28;20428;-82
2022/03/27 11:32:08;;;;;;;16.55;4.38;;;15.20;88.20;;;;;;5113584;28;20100;-83
2022/03/27 11:35:12;;;;;;;21.02;4.53;;;15.30;87.60;;;;;;5098647;28;20172;-82
2022/03/27 11:38:18;;;;;;;16.63;4.13;;;15.40;85.30;;;;;;5113034;28;20038;-82
2022/03/27 11:41:22;;;;;;;17.92;5.10;;;15.60;84.10;;;;;;5114187;28;20114;-83
2022/03/27 11:44:23;;;;;;;15.85;4.53;;;15.70;85.80;;;;;;5112397;28;20046;-83
2022/03/27 11:47:08;;;;;;;18.40;4.28;;;15.80;79.80;;;;;;5112353;28;20118;-82
2022/03/27 11:49:54;;;;;;;23.60;5.15;;;15.80;81.30;;;;;;5112782;28;20456;-82
2022/03/27 11:52:45;;;;;;;25.83;4.75;;;15.80;77.60;;;;;;5112719;28;20131;-82
2022/03/27 11:55:31;;;;;;;13.13;4.20;;;15.70;76.90;;;;;;5113245;28;20161;-82
2022/03/27 11:58:19;;;;;;;22.50;4.18;;;15.60;76.70;;;;;;5113123;28;20168;-82
2022/03/27 12:01:05;;;;;;;19.85;4.22;;;15.70;76.60;;;;;;5113692;28;20042;-82
2022/03/27 12:03:56;;;;;;;20.33;4.82;;;15.80;77.10;;;;;;5113520;28;20043;-82
2022/03/27 12:06:41;;;;;;;18.10;4.68;;;15.90;71.30;;;;;;5112500;28;20445;-82
2022/03/27 12:09:28;;;;;;;15.85;4.13;;;15.90;75.50;;;;;;5112844;28;20161;-82
2022/03/27 12:12:14;;;;;;;20.73;4.50;;;15.90;75.40;;;;;;5112847;28;20096;-83
2022/03/27 12:15:04;;;;;;;17.13;4.82;;;16.00;74.40;;;;;;5113218;28;20113;-82
2022/03/27 12:17:48;;;;;;;15.00;4.28;;;16.10;72.00;;;;;;5111917;28;20038;-82
2022/03/27 12:20:46;;;;;;;17.73;4.10;;;16.20;72.00;;;;;;5111700;28;20039;-82
2022/03/27 12:23:35;;;;;;;20.48;5.13;;;16.20;71.30;;;;;;5111655;28;20149;-82
2022/03/27 12:29:43;;;;;;;13.85;3.53;;;16.40;71.60;;;;;;5112647;28;20038;-82
2022/03/27 12:32:28;;;;;;;17.35;3.28;;;;;;;;;;5099181;28;20100;-82
2022/03/27 12:35:21;;;;;;;15.25;3.50;;;16.60;66.10;;;;;;5111668;28;20066;-83
2022/03/27 12:38:05;;;;;;;16.60;3.85;;;16.70;66.90;;;;;;5112127;28;20092;-82
2022/03/27 12:40:50;;;;;;;17.63;3.85;;;16.70;63.90;;;;;;5111894;28;20058;-82
2022/03/27 12:43:34;;;;;;;19.48;4.70;;;16.70;63.70;;;;;;5111297;28;20043;-83
2022/03/27 12:46:20;;;;;;;15.07;3.70;;;16.60;64.00;;;;;;5112399;28;20038;-83
2022/03/27 12:49:06;;;;;;;14.73;3.28;;;16.70;63.20;;;;;;5111826;28;20076;-82
2022/03/27 12:51:57;;;;;;;10.07;2.65;;;16.90;62.00;;;;;;5111732;28;20062;-82
2022/03/27 12:55:01;;;;;;;13.60;3.15;;;16.90;59.80;;;;;;5112880;28;20627;-82
2022/03/27 12:57:56;;;;;;;12.25;2.97;;;17.00;58.50;;;;;;5111900;28;20038;-82
2022/03/27 13:00:41;;;;;;;14.18;3.72;;;17.00;57.80;;;;;;5112766;28;20395;-82
2022/03/27 13:03:25;;;;;;;11.23;3.03;;;17.20;57.80;;;;;;5112222;28;20084;-83
2022/03/27 13:06:10;;;;;;;12.13;2.92;;;16.90;56.20;;;;;;5097357;28;20129;-82
2022/03/27 13:08:58;;;;;;;8.35;2.40;;;17.20;55.80;;;;;;5112704;28;20039;-82
2022/03/27 13:11:44;;;;;;;9.95;2.72;;;17.10;55.80;;;;;;5112373;28;20100;-82
2022/03/27 13:14:29;;;;;;;9.93;2.17;;;17.00;55.40;;;;;;5111912;28;20478;-82
2022/03/27 13:17:13;;;;;;;9.63;2.70;;;16.80;51.70;;;;;;5112600;28;20423;-82
2022/03/27 13:19:58;;;;;;;10.88;3.10;;;16.90;53.40;;;;;;5112553;28;20051;-82
2022/03/27 13:22:43;;;;;;;7.47;2.55;;;16.80;51.90;;;;;;5112166;28;20099;-82
2022/03/27 13:25:27;;;;;;;7.35;2.35;;;17.00;52.00;;;;;;5096759;28;20057;-82
2022/03/27 13:28:11;;;;;;;9.55;2.50;;;17.40;49.80;;;;;;5097082;28;20047;-82
2022/03/27 13:30:55;;;;;;;6.55;1.92;;;17.30;49.80;;;;;;5114944;28;20096;-83
2022/03/27 13:33:39;;;;;;;10.05;2.53;;;17.50;48.30;;;;;;5114658;28;20074;-83
2022/03/27 13:36:24;;;;;;;6.30;1.88;;;17.40;48.40;;;;;;5114754;28;20047;-83
2022/03/27 13:39:09;;;;;;;8.07;3.28;;;17.20;47.20;;;;;;5100871;28;20128;-82
2022/03/27 13:44:58;;;;;;;5.78;1.77;;;;;;;;;;5116340;28;20070;-82
2022/03/27 13:47:42;;;;;;;3.83;1.38;;;16.60;43.00;;;;;;5114496;28;20039;-82
2022/03/27 13:50:26;;;;;;;3.20;1.17;;;16.80;43.20;;;;;;5114428;28;20046;-84
2022/03/27 13:53:11;;;;;;;4.25;1.40;;;16.80;42.50;;;;;;5100626;28;20514;-82
2022/03/27 13:55:55;;;;;;;5.55;1.40;;;16.80;41.70;;;;;;5086412;28;20082;-82
2022/03/27 13:58:40;;;;;;;8.52;1.90;;;16.40;40.90;;;;;;5115335;28;20051;-83
2022/03/27 14:01:24;;;;;;;7.53;1.55;;;16.60;41.80;;;;;;5143860;27;20046;-84
2022/03/27 14:04:13;;;;;;;7.28;1.70;;;16.70;43.10;;;;;;5115869;28;20062;-82
2022/03/27 14:06:58;;;;;;;10.18;2.20;;;16.70;43.40;;;;;;5115044;28;20092;-83
2022/03/27 14:09:43;;;;;;;8.77;2.13;;;16.60;43.60;;;;;;5099786;28;20046;-83
2022/03/27 14:12:27;;;;;;;7.43;2.03;;;16.60;44.80;;;;;;5115284;28;20051;-83
2022/03/27 14:15:12;;;;;;;7.60;2.10;;;16.70;45.50;;;;;;5114675;28;20179;-82
2022/03/27 14:17:57;;;;;;;6.18;1.60;;;16.70;45.50;;;;;;5115644;28;20056;-82
2022/03/27 14:20:41;;;;;;;6.07;1.75;;;16.70;45.30;;;;;;5099562;28;20043;-82
2022/03/27 14:23:26;;;;;;;6.90;1.88;;;16.70;45.10;;;;;;5114449;28;20094;-82
2022/03/27 14:26:10;;;;;;;5.85;2.28;;;16.70;45.70;;;;;;5115574;28;20450;-82
2022/03/27 14:28:55;;;;;;;7.25;2.00;;;16.70;45.60;;;;;;5099994;28;20394;-82
2022/03/27 14:31:40;;;;;;;6.95;2.25;;;16.60;45.90;;;;;;5085061;28;20600;-82
2022/03/27 14:34:24;;;;;;;8.30;2.10;;;16.50;46.00;;;;;;5100099;28;20510;-82
2022/03/27 14:37:08;;;;;;;8.95;2.15;;;16.50;47.00;;;;;;5115349;28;20047;-81
2022/03/27 14:39:53;;;;;;;9.65;2.97;;;16.40;46.90;;;;;;5113264;28;20089;-82
2022/03/27 14:42:39;;;;;;;13.70;2.92;;;16.20;48.50;;;;;;5113513;28;20096;-82
2022/03/27 14:45:24;;;;;;;13.30;3.45;;;16.30;47.90;;;;;;5099954;28;20117;-82
2022/03/27 14:48:08;;;;;;;11.93;2.83;;;16.30;48.00;;;;;;5113999;28;20038;-82
2022/03/27 14:50:53;;;;;;;10.45;2.90;;;16.30;49.10;;;;;;5113334;28;20321;-82
2022/03/27 14:56:41;;;;;;;11.93;2.78;;;;;;;;;;5113461;28;20123;-82
2022/03/27 14:59:25;;;;;;;9.80;2.00;;;16.50;51.40;;;;;;5113924;28;20038;-82
2022/03/27 15:02:09;;;;;;;9.02;2.42;;;15.90;49.70;;;;;;5113774;28;20096;-82
2022/03/27 15:04:53;;;;;;;13.02;3.70;;;15.80;49.70;;;;;;5113868;28;20161;-84
2022/03/27 15:07:37;;;;;;;14.98;2.97;;;15.80;52.20;;;;;;5098595;28;20097;-85